Terminal Aerodrome Forecast
Issued by NWS Amarillo, TX

Home | Current Version | Previous Version | Text Only | Print | Product List | Glossary On
Versions: 1 2 3 4 5 6 7 8 9 10 11 12 13 14
000
FTUS44 KAMA 301100
TAFDHT
TAF
KDHT 301120Z 3012/0112 24007KT P6SM SKC
     FM301700 19011KT P6SM SCT080
     FM010400 21012KT P6SM SCT250=

USA.gov is the U.S. government's official web portal to all federal, state and local government web resources and services.